Nhulunbuy Ap Daily Summaries

May 2020
icon icon icon icon
date min to 9am anomaly max from 9am anomaly rain to 9am  
°C °C °C °C mm
Fri 01/05/2020 25.4 +2.8 28.9 -1.1 3.6  
Sat 02/05/2020 26.0 +3.4 30.4 +0.4 0.0  
Sun 03/05/2020 26.3 +3.7 30.1 +0.1 0.0  
Mon 04/05/2020 26.3 +3.7 30.9 +0.9 0.0  
Tue 05/05/2020 24.7 +2.1 31.8 +1.8 3.4  
Wed 06/05/2020 23.6 +1.0 30.8 +0.8 0.0  
Thu 07/05/2020 21.4 -1.2 31.0 +1.0 0.2  
Fri 08/05/2020 22.0 -0.6 31.0 +1.0 1.6  
Sat 09/05/2020 22.7 +0.1 31.7 +1.7 0.2  
Sun 10/05/2020 24.0 +1.4 32.8 +2.8 0.2  
Mon 11/05/2020 26.4 +3.8 32.7 +2.7 0.0  
Tue 12/05/2020 26.4 +3.8 31.2 +1.2 0.0  
Wed 13/05/2020 24.1 +1.5 29.1 -0.9 11.0  
Thu 14/05/2020 25.0 +2.4 29.7 -0.3 0.4  
Fri 15/05/2020 25.1 +2.5 30.0 +0.0 -  
Sat 16/05/2020 25.1 +2.5 30.6 +0.6 1.2  
Sun 17/05/2020 24.4 +1.8 29.8 -0.2 2.0  
Mon 18/05/2020 25.4 +2.8 31.2 +1.2 0.2  
Tue 19/05/2020 24.2 +1.6 30.7 +0.7 5.8  
Wed 20/05/2020 24.4 +1.8 30.8 +0.8 3.0  
Thu 21/05/2020 26.5 +3.9 30.4 +0.4 0.0  
Fri 22/05/2020 23.9 +1.3 27.3 -2.7 25.6  
Sat 23/05/2020 23.1 +0.5 26.3 -3.7 0.2  
Sun 24/05/2020 22.2 -0.4 26.9 -3.1 0.0  
Mon 25/05/2020 21.7 -0.9 27.3 -2.7 0.0  
Tue 26/05/2020 19.6 -3.0 27.4 -2.6 0.0  
Wed 27/05/2020 19.4 -3.2 28.4 -1.6 0.0  
Thu 28/05/2020 19.6 -3.0 29.6 -0.4 0.0  
Fri 29/05/2020 20.7 -1.9 29.5 -0.5 0.0  
Sat 30/05/2020 20.0 -2.6 30.0 +0.0 0.0  
Sun 31/05/2020 21.9 -0.7 30.3 +0.3 0.0  
 
May 2020 Average 23.6 +1.0 30.0 +0.0    
May 1967-2017 Average 22.6   30.0      
May 1967-2017 Highest 26.6 11th 2016 34.0 2nd 1988    
May 1967-2017 Lowest 13.2 27th 1967 24.2 25th 2012    
 
May 2020 Total         58.6 15 day(s)
May 1944-2017 Average Total         89.5 12.3 day(s)
May 1944-2017 Wettest Total         373.4 2004
May 1944-2017 Wettest 24hr Total         187.4 19th 2004
May 1944-2017 Driest Total         3.4 2002
 
Jan-May 2020 Total         623.0 80 day(s)
Jan-May 1944-2017 Average Total         1157.0 82.1 day(s)
 
Highlights the coolest minimum or maximum temperature during the period.
 
Highlights the warmest minimum or maximum temperature during the period.
 
Highlights the highest daily rainfall during the period.
10  
A yellow cell indicates a probable monthly record for this site (sites with ≥ 10 years of records only). The number of years of records available for the relevant field for this month is indicated in black. See the station's climate page for full details.

Station Details

GOVE AIRPORT
Arnhem, Northern Territory
12.2741°S 136.8201°E 52m AMSL
Commenced 1944

Site search


Enter a postcode or town name for local weather, or text to search the site. » advanced search

Thunderstorms closing in on southwest WA

14:54 AEST A low-pressure system, accompanied by a front and troughs, is currently impacting southwestern parts of Western Australia, bringing rain, wind, and storms.

Help with Farmonline Weather